Yreka, CA

11:41 AM PDT on August 27, 2014 (GMT -0700)
Siskiyou County | Change Station
CLOSE
Current Station
Airport
Location: Montague,
Elevation: 2648 ft
Nearby Weather Stations

Elev 2648 ft 41.78 °N, 122.47 °W | Updated 48 minutes ago

Clear
Clear
79 °F
Feels Like 79 °F
N
0
Wind Variable Wind from North

Today
High -- | Low -- °F
--% Chance of Precip.
Yesterday
High -- | Low -- °F
Precip. -- in
6:31 AM 7:51 PM
Waxing Crescent, 4% visible
Pressure 30.09 in
Visibility 10.0 miles
Clouds Clear
Dew Point 42 °F
Humidity 27%
Rainfall 0.00 in
Snow Depth Not available.
UV 7 out of 12
Pollen 6.30 out of 12
Air Quality Not available.
Flu Activity Not available.
METAR KSIY 271753Z AUTO 00000KT 10SM CLR 26/06 A3014 RMK AO2 SLP189 T02610056 10261 20128 50001

More Conditions Fewer Conditions

Pressure 30.09 in
Visibility 10.0 miles
Clouds Clear
Dew Point 42 °F
Humidity 27%
Rainfall 0.00 in
Snow Depth Not available.
UV 7 out of 12
Pollen 6.30 out of 12
Air Quality Not available.
Flu Activity Not available.
METAR KSIY 271753Z AUTO 00000KT 10SM CLR 26/06 A3014 RMK AO2 SLP189 T02610056 10261 20128 50001

More Conditions Fewer Conditions

10-Day Weather Forecast

Almanac

Astronomy

Aug. 27, 2014 Rise Set
Actual Time 6:31 AM PDT 7:51 PM PDT
Civil Twilight 6:02 AM PDT 8:20 PM PDT
Nautical Twilight 5:27 AM PDT 8:55 PM PDT
Astronomical Twilight 4:50 AM PDT 9:31 PM PDT
Moon 8:34 AM PDT 8:44 PM PDT
Length of Visible Light 14h 18m
Length of Day
13h 20m
Tomorrow will be 2m 39s shorter.
Waxing Crescent, 4% of the Moon is Illuminated
Today
Waxing Crescent
Sep 2
First Quarter
Sep 8
Full
Sep 15
Last Quarter
Sep 24
New

Today's Extremes

State Highs State Lows

Community

WunderPhotos

Upload Photos

1,747,752 photos uploaded!

Nearby

Snow Depth

Station Depth Elevation
Adin Mountain 0 in 6200 ft
Rubicon #2 0 in 7500 ft
Leavitt Lake 0 in 9400 ft

Earthquake Activity

City Distance Mag. Time & Date
Hayfork, California 96 miles 2.7 2:57 PM PDT
2014-08-25
Minimum magnitude displayed is 2.5.

Coastal Water Temperatures

Place Temperature
No Stations Reporting

Nearby Weather Stations